Time;durP1;ratioP1;P1;durP2;ratioP2;P2;SDS_P1;SDS_P2;PMS_P1;PMS_P2;Temp;Humidity;BMP_temperature;BMP_pressure;BME280_temperature;BME280_humidity;BME280_pressure;Samples;Min_cycle;Max_cycle;Signal;HPM_P1;HPM_P2
2022/03/12 00:00:48;;;;;;;12.05;6.72;;;;;;;;;;5036940;28;20052;-71
2022/03/12 00:03:14;;;;;;;11.68;6.55;;;;;;;;;;5037213;28;20483;-72
2022/03/12 00:05:54;;;;;;;15.02;6.50;;;;;;;;;;5037286;28;20424;-71
2022/03/12 00:08:21;;;;;;;11.45;6.85;;;;;;;;;;5037272;28;20134;-71
2022/03/12 00:10:51;;;;;;;10.38;6.20;;;;;;;;;;5036391;28;20056;-72
2022/03/12 00:13:21;;;;;;;12.77;7.38;;;;;;;;;;5036810;28;20056;-71
2022/03/12 00:15:50;;;;;;;11.43;6.72;;;;;;;;;;5036760;28;20134;-72
2022/03/12 00:18:19;;;;;;;;;;;;;;;;;;5037010;28;20053;-72
2022/03/12 00:20:48;;;;;;;9.75;6.05;;;;;;;;;;5036300;28;19921;-72
2022/03/12 00:23:18;;;;;;;12.90;6.03;;;;;;;;;;5036106;28;20131;-72
2022/03/12 00:25:44;;;;;;;16.05;7.13;;;;;;;;;;5036839;28;20054;-72
2022/03/12 00:28:12;;;;;;;14.27;6.32;;;;;;;;;;5018386;28;20175;-71
2022/03/12 00:30:38;;;;;;;14.10;6.90;;;;;;;;;;5018750;28;20053;-72
2022/03/12 00:33:04;;;;;;;14.00;7.30;;;;;;;;;;5018346;28;20045;-71
2022/03/12 00:35:31;;;;;;;10.48;6.22;;;;;;;;;;5018255;28;20061;-72
2022/03/12 00:37:57;;;;;;;11.80;6.80;;;;;;;;;;5018492;28;20056;-72
2022/03/12 00:40:23;;;;;;;11.52;6.32;;;;;;;;;;5035950;28;20080;-71
2022/03/12 00:42:49;;;;;;;12.63;6.88;;;;;;;;;;5018190;28;20543;-71
2022/03/12 00:45:15;;;;;;;13.30;7.05;;;;;;;;;;5036528;28;20095;-73
2022/03/12 00:47:42;;;;;;;13.35;6.90;;;;;;;;;;5036067;28;20427;-71
2022/03/12 00:50:08;;;;;;;11.85;6.45;;;;;;;;;;5036119;28;20145;-71
2022/03/12 00:52:34;;;;;;;13.30;6.97;;;;;;;;;;5035912;28;20046;-71
2022/03/12 00:55:00;;;;;;;16.35;6.30;;;;;;;;;;5036046;28;20038;-72
2022/03/12 00:57:26;;;;;;;12.75;7.30;;;;;;;;;;5034332;28;20514;-71
2022/03/12 00:59:52;;;;;;;14.73;6.63;;;;;;;;;;5035860;28;20499;-71
2022/03/12 01:02:19;;;;;;;9.68;6.45;;;;;;;;;;5035837;28;20049;-71
2022/03/12 01:04:45;;;;;;;11.20;6.60;;;;;;;;;;5035878;28;20514;-71
2022/03/12 01:07:12;;;;;;;10.95;6.35;;;;;;;;;;5035670;28;20077;-71
2022/03/12 01:09:38;;;;;;;10.07;6.57;;;;;;;;;;5017583;28;20460;-71
2022/03/12 01:12:05;;;;;;;12.75;6.93;;;;;;;;;;5034220;28;20037;-71
2022/03/12 01:14:31;;;;;;;11.82;6.65;;;;;;;;;;5035495;28;20052;-71
2022/03/12 01:17:01;;;;;;;11.00;6.20;;;;;;;;;;5035550;28;20444;-71
2022/03/12 01:19:27;;;;;;;9.98;6.45;;;;;;;;;;5034982;28;20040;-72
2022/03/12 01:21:53;;;;;;;11.73;6.95;;;;;;;;;;5035226;28;20041;-71
2022/03/12 01:24:20;;;;;;;12.13;6.50;;;;;;;;;;5035125;28;20201;-72
2022/03/12 01:26:46;;;;;;;10.30;6.47;;;;;;;;;;5035527;28;20042;-71
2022/03/12 01:29:12;;;;;;;12.15;7.15;;;;;;;;;;5035494;28;20049;-71
2022/03/12 01:31:38;;;;;;;11.50;6.13;;;;;;;;;;5017428;28;20049;-71
2022/03/12 01:34:04;;;;;;;12.23;6.65;;;;;;;;;;5035240;28;20037;-71
2022/03/12 01:36:31;;;;;;;11.23;7.15;;;;;;;;;;5017184;28;20064;-71
2022/03/12 01:38:58;;;;;;;11.20;6.68;;;;;;;;;;5034825;28;20046;-71
2022/03/12 01:41:25;;;;;;;10.93;6.18;;;;;;;;;;5035104;28;20042;-71
2022/03/12 01:43:53;;;;;;;12.30;7.18;;;;;;;;;;5034789;28;20500;-71
2022/03/12 01:46:23;;;;;;;11.90;7.10;;;;;;;;;;5034920;28;20051;-71
2022/03/12 01:48:50;;;;;;;18.17;7.43;;;;;;;;;;5034777;28;20053;-71
2022/03/12 01:51:17;;;;;;;12.93;6.75;;;;;;;;;;5017247;28;20045;-71
2022/03/12 01:53:44;;;;;;;11.23;7.53;;;;;;;;;;5034976;28;20112;-72
2022/03/12 01:56:10;;;;;;;12.68;6.90;;;;;;;;;;5016818;28;20054;-71
2022/03/12 01:58:36;;;;;;;11.27;7.32;;;;;;;;;;5034778;28;20041;-71
2022/03/12 02:01:02;;;;;;;13.35;7.22;;;;;;;;;;5016760;28;20065;-71
2022/03/12 02:03:29;;;;;;;14.60;7.18;;;;;;;;;;5016879;28;20046;-71
2022/03/12 02:05:55;;;;;;;14.63;6.72;;;;;;;;;;5016895;28;20085;-71
2022/03/12 02:08:22;;;;;;;13.48;7.28;;;;;;;;;;5034839;28;20046;-71
2022/03/12 02:10:49;;;;;;;12.40;6.75;;;;;;;;;;5034390;28;20396;-71
2022/03/12 02:13:16;;;;;;;10.88;6.60;;;;;;;;;;5034768;28;20050;-72
2022/03/12 02:15:42;;;;;;;10.43;6.82;;;;;;;;;;5016396;28;20120;-72
2022/03/12 02:18:09;;;;;;;13.02;6.80;;;;;;;;;;5034785;28;20121;-72
2022/03/12 02:20:35;;;;;;;12.70;7.30;;;;;;;;;;5033290;28;20532;-71
2022/03/12 02:23:01;;;;;;;11.48;6.35;;;;;;;;;;5034128;28;20120;-71
2022/03/12 02:25:28;;;;;;;12.68;6.28;;;;;;;;;;5034269;28;20088;-71
2022/03/12 02:27:54;;;;;;;12.88;6.53;;;;;;;;;;5034017;28;20452;-71
2022/03/12 02:30:21;;;;;;;11.63;7.00;;;;;;;;;;5034289;28;20481;-71
2022/03/12 02:32:47;;;;;;;10.55;6.80;;;;;;;;;;5034351;28;20049;-71
2022/03/12 02:35:14;;;;;;;15.60;6.75;;;;;;;;;;5033741;28;20058;-71
2022/03/12 02:37:45;;;;;;;13.25;6.70;;;;;;;;;;5034205;28;20049;-71
2022/03/12 02:40:12;;;;;;;12.23;6.53;;;;;;;;;;5033935;28;20041;-71
2022/03/12 02:42:39;;;;;;;12.27;6.70;;;;;;;;;;5016201;28;20041;-72
2022/03/12 02:45:07;;;;;;;8.57;6.07;;;;;;;;;;5034648;28;20085;-71
2022/03/12 02:47:34;;;;;;;13.50;7.60;;;;;;;;;;5034165;28;20056;-73
2022/03/12 02:50:03;;;;;;;13.63;7.35;;;;;;;;;;5034341;28;20072;-71
2022/03/12 02:52:29;;;;;;;16.05;7.85;;;;;;;;;;5033767;28;20092;-72
2022/03/12 02:54:57;;;;;;;17.23;7.25;;;;;;;;;;5033832;28;20045;-71
2022/03/12 02:57:26;;;;;;;13.25;7.18;;;;;;;;;;5015464;28;20451;-71
2022/03/12 02:59:53;;;;;;;12.73;7.00;;;;;;;;;;5033277;28;20054;-71
2022/03/12 03:02:38;;;;;;;13.50;7.10;;;;;;;;;;5033524;28;20072;-72
2022/03/12 03:05:04;;;;;;;10.98;6.88;;;;;;;;;;5016603;28;20054;-72
2022/03/12 03:07:31;;;;;;;11.93;6.70;;;;;;;;;;5015407;28;20485;-72
2022/03/12 03:09:57;;;;;;;11.32;6.70;;;;;;;;;;5032977;28;20097;-72
2022/03/12 03:12:23;;;;;;;13.88;7.15;;;;;;;;;;5015815;28;20084;-72
2022/03/12 03:14:50;;;;;;;12.27;7.30;;;;;;;;;;5033088;28;20484;-72
2022/03/12 03:17:16;;;;;;;11.40;6.60;;;;;;;;;;5032847;28;20059;-71
2022/03/12 03:19:44;;;;;;;13.80;6.82;;;;;;;;;;5032988;28;20041;-72
2022/03/12 03:22:11;;;;;;;12.98;6.88;;;;;;;;;;5033039;28;20107;-72
2022/03/12 03:24:37;;;;;;;10.35;6.97;;;;;;;;;;5015213;28;20045;-73
2022/03/12 03:27:03;;;;;;;13.52;7.10;;;;;;;;;;5033442;28;20064;-70
2022/03/12 03:29:31;;;;;;;14.77;7.03;;;;;;;;;;5033417;28;20429;-72
2022/03/12 03:32:00;;;;;;;13.45;7.15;;;;;;;;;;5035067;28;20111;-70
2022/03/12 03:34:26;;;;;;;10.77;7.13;;;;;;;;;;5037417;28;20112;-71
2022/03/12 03:36:52;;;;;;;10.93;6.50;;;;;;;;;;5036487;28;20057;-71
2022/03/12 03:39:18;;;;;;;10.68;6.40;;;;;;;;;;5036507;28;20045;-71
2022/03/12 03:41:44;;;;;;;12.10;6.88;;;;;;;;;;5019011;28;20061;-71
2022/03/12 03:44:11;;;;;;;12.63;7.05;;;;;;;;;;5036944;28;20033;-71
2022/03/12 03:46:37;;;;;;;13.65;6.80;;;;;;;;;;5036997;28;20392;-72
2022/03/12 03:49:04;;;;;;;12.13;7.18;;;;;;;;;;5036631;28;20042;-71
2022/03/12 03:51:32;;;;;;;12.68;7.03;;;;;;;;;;5036423;28;20481;-72
2022/03/12 03:53:58;;;;;;;12.23;6.95;;;;;;;;;;5036543;28;20128;-72
2022/03/12 03:56:24;;;;;;;11.98;7.13;;;;;;;;;;5036394;28;20046;-72
2022/03/12 03:58:50;;;;;;;15.02;7.35;;;;;;;;;;5036303;28;20593;-72
2022/03/12 04:01:21;;;;;;;12.48;7.28;;;;;;;;;;5018663;28;20084;-72
2022/03/12 04:03:48;;;;;;;12.20;7.10;;;;;;;;;;5036203;28;20045;-71
2022/03/12 04:06:25;;;;;;;11.13;6.25;;;;;;;;;;5035982;28;20416;-72
2022/03/12 04:08:51;;;;;;;13.98;6.80;;;;;;;;;;5036064;28;20049;-71
2022/03/12 04:11:24;;;;;;;12.43;6.82;;;;;;;;;;5036083;28;20489;-71
2022/03/12 04:13:52;;;;;;;11.70;6.55;;;;;;;;;;5036147;28;20056;-71
2022/03/12 04:16:19;;;;;;;11.52;6.75;;;;;;;;;;5036494;28;20048;-71
2022/03/12 04:18:46;;;;;;;12.10;7.15;;;;;;;;;;5036349;28;20041;-71
2022/03/12 04:21:13;;;;;;;12.85;6.38;;;;;;;;;;5034650;28;20477;-71
2022/03/12 04:23:40;;;;;;;12.27;7.00;;;;;;;;;;5035888;28;20103;-71
2022/03/12 04:26:06;;;;;;;14.52;6.65;;;;;;;;;;5036017;28;20045;-71
2022/03/12 04:28:32;;;;;;;13.00;7.28;;;;;;;;;;5035728;28;20048;-71
2022/03/12 04:31:02;;;;;;;14.50;6.70;;;;;;;;;;5035732;28;20099;-72
2022/03/12 04:33:29;;;;;;;12.52;6.65;;;;;;;;;;5017886;28;20496;-71
2022/03/12 04:35:55;;;;;;;14.02;6.70;;;;;;;;;;5035568;28;20492;-71
2022/03/12 04:38:21;;;;;;;11.57;6.20;;;;;;;;;;5035479;28;20497;-71
2022/03/12 04:40:47;;;;;;;13.32;6.43;;;;;;;;;;5017537;28;20045;-71
2022/03/12 04:43:14;;;;;;;20.52;8.68;;;;;;;;;;5016918;28;20409;-71
2022/03/12 04:45:42;;;;;;;13.43;6.78;;;;;;;;;;5035007;28;20073;-71
2022/03/12 04:48:10;;;;;;;12.77;7.13;;;;;;;;;;5035155;28;20473;-71
2022/03/12 04:50:36;;;;;;;13.90;7.53;;;;;;;;;;5035660;28;20079;-71
2022/03/12 04:53:02;;;;;;;13.68;6.72;;;;;;;;;;5035375;28;20125;-71
2022/03/12 04:55:29;;;;;;;37.67;9.27;;;;;;;;;;5035248;28;20053;-71
2022/03/12 04:57:56;;;;;;;18.25;7.45;;;;;;;;;;5035456;28;20048;-71
2022/03/12 05:00:29;;;;;;;13.43;6.85;;;;;;;;;;5017260;28;20125;-72
2022/03/12 05:03:01;;;;;;;17.00;7.68;;;;;;;;;;5035363;28;20103;-71
2022/03/12 05:05:27;;;;;;;10.63;6.88;;;;;;;;;;5035081;28;20427;-72
2022/03/12 05:07:58;;;;;;;14.93;6.85;;;;;;;;;;5017639;28;20038;-71
2022/03/12 05:10:26;;;;;;;13.68;6.50;;;;;;;;;;5017409;28;20076;-71
2022/03/12 05:12:57;;;;;;;12.23;6.57;;;;;;;;;;5017062;28;20404;-72
2022/03/12 05:15:23;;;;;;;11.45;6.82;;;;;;;;;;5033795;28;20081;-72
2022/03/12 05:17:49;;;;;;;11.40;6.53;;;;;;;;;;5017223;28;20057;-72
2022/03/12 05:20:22;;;;;;;11.70;6.25;;;;;;;;;;5035119;28;20041;-71
2022/03/12 05:22:49;;;;;;;12.57;6.50;;;;;;;;;;5034784;28;20045;-72
2022/03/12 05:25:19;;;;;;;15.25;6.88;;;;;;;;;;5034419;28;20045;-73
2022/03/12 05:27:48;;;;;;;13.32;7.20;;;;;;;;;;5035015;28;20060;-71
2022/03/12 05:30:14;;;;;;;10.43;6.28;;;;;;;;;;5034870;28;20045;-73
2022/03/12 05:32:41;;;;;;;12.10;6.35;;;;;;;;;;5034703;28;20053;-72
2022/03/12 05:35:07;;;;;;;15.95;7.22;;;;;;;;;;5034355;28;20046;-72
2022/03/12 05:37:36;;;;;;;13.30;7.20;;;;;;;;;;5033262;28;20053;-71
2022/03/12 05:40:02;;;;;;;10.68;6.72;;;;;;;;;;5016496;28;20049;-71
2022/03/12 05:42:29;;;;;;;12.05;6.65;;;;;;;;;;5034682;28;20038;-71
2022/03/12 05:44:56;;;;;;;17.70;7.80;;;;;;;;;;5034501;28;20555;-71
2022/03/12 05:47:23;;;;;;;12.60;6.80;;;;;;;;;;5034247;28;20111;-72
2022/03/12 05:49:49;;;;;;;11.43;6.38;;;;;;;;;;5033039;28;20053;-71
2022/03/12 05:52:17;;;;;;;17.02;7.60;;;;;;;;;;5034236;28;20400;-71
2022/03/12 05:54:45;;;;;;;13.73;6.72;;;;;;;;;;5033944;28;20092;-72
2022/03/12 05:57:11;;;;;;;16.98;6.70;;;;;;;;;;5016287;28;20080;-71
2022/03/12 05:59:37;;;;;;;16.25;7.47;;;;;;;;;;5033873;28;20084;-72
2022/03/12 06:02:04;;;;;;;12.30;6.80;;;;;;;;;;5034350;28;20103;-72
2022/03/12 06:04:29;;;;;;;17.92;7.82;;;;;;;;;;5016501;28;20049;-72
2022/03/12 06:06:55;;;;;;;14.88;6.57;;;;;;;;;;5033870;28;20400;-72
2022/03/12 06:09:22;;;;;;;18.15;8.15;;;;;;;;;;5016510;28;20046;-72
2022/03/12 06:11:52;;;;;;;15.15;7.20;;;;;;;;;;5034036;28;20098;-72
2022/03/12 06:14:19;;;;;;;17.05;8.52;;;;;;;;;;5016253;28;20050;-73
2022/03/12 06:16:48;;;;;;;14.10;7.20;;;;;;;;;;5033008;28;20484;-72
2022/03/12 06:19:22;;;;;;;18.70;7.93;;;;;;;;;;5033847;28;20489;-72
2022/03/12 06:21:48;;;;;;;16.58;8.35;;;;;;;;;;5034293;28;20489;-72
2022/03/12 06:24:15;;;;;;;17.58;7.05;;;;;;;;;;5034000;28;20077;-73
2022/03/12 06:26:43;;;;;;;16.95;7.18;;;;;;;;;;5033861;28;20041;-72
2022/03/12 06:29:12;;;;;;;14.63;7.03;;;;;;;;;;5016185;28;20049;-72
2022/03/12 06:31:38;;;;;;;11.40;6.57;;;;;;;;;;5033672;28;20053;-72
2022/03/12 06:34:04;;;;;;;33.78;10.00;;;;;;;;;;5033309;28;20095;-73
2022/03/12 06:36:30;;;;;;;26.63;8.63;;;;;;;;;;5033786;28;20111;-73
2022/03/12 06:38:57;;;;;;;19.23;7.35;;;;;;;;;;5033437;28;20455;-73
2022/03/12 06:41:23;;;;;;;36.88;10.52;;;;;;;;;;5032433;28;20061;-71
2022/03/12 06:43:50;;;;;;;55.08;14.60;;;;;;;;;;5033915;28;20049;-73
2022/03/12 06:46:17;;;;;;;30.98;9.85;;;;;;;;;;5034674;28;20057;-73
2022/03/12 06:48:44;;;;;;;52.13;13.30;;;;;;;;;;5033935;28;20056;-71
2022/03/12 06:51:10;;;;;;;28.52;10.20;;;;;;;;;;5034267;28;20593;-73
2022/03/12 06:53:37;;;;;;;37.55;11.45;;;;;;;;;;5034372;28;20128;-72
2022/03/12 06:56:03;;;;;;;23.52;8.57;;;;;;;;;;5034248;28;20045;-71
2022/03/12 06:58:30;;;;;;;16.17;8.05;;;;;;;;;;5033254;28;20049;-73
2022/03/12 07:00:56;;;;;;;24.05;8.02;;;;;;;;;;5033099;28;20076;-71
2022/03/12 07:03:22;;;;;;;20.40;7.93;;;;;;;;;;5032938;28;20481;-73
2022/03/12 07:05:48;;;;;;;16.83;7.57;;;;;;;;;;5034499;28;20045;-71
2022/03/12 07:08:14;;;;;;;14.85;6.88;;;;;;;;;;5022123;28;20125;-72
2022/03/12 07:10:40;;;;;;;22.02;8.68;;;;;;;;;;5039632;28;20053;-72
2022/03/12 07:13:06;;;;;;;27.17;9.45;;;;;;;;;;5039743;28;20049;-72
2022/03/12 07:15:32;;;;;;;25.48;9.88;;;;;;;;;;5039712;28;20402;-72
2022/03/12 07:17:58;;;;;;;23.35;7.88;;;;;;;;;;5039518;28;20046;-72
2022/03/12 07:20:24;;;;;;;30.63;10.50;;;;;;;;;;5039833;28;20052;-72
2022/03/12 07:22:50;;;;;;;32.25;10.48;;;;;;;;;;5039815;28;20436;-71
2022/03/12 07:25:17;;;;;;;16.38;8.27;;;;;;;;;;5039837;28;20067;-73
2022/03/12 07:27:43;;;;;;;19.00;7.50;;;;;;;;;;5039551;28;20037;-71
2022/03/12 07:30:10;;;;;;;12.90;7.20;;;;;;;;;;5040121;28;20037;-71
2022/03/12 07:32:36;;;;;;;19.05;8.15;;;;;;;;;;5039339;28;20080;-70
2022/03/12 07:35:03;;;;;;;15.73;7.95;;;;;;;;;;5021463;28;20106;-72
2022/03/12 07:37:29;;;;;;;19.08;8.27;;;;;;;;;;5039497;28;20412;-73
2022/03/12 07:39:55;;;;;;;20.67;8.05;;;;;;;;;;5039492;28;20041;-70
2022/03/12 07:42:21;;;;;;;16.45;7.72;;;;;;;;;;5039591;28;20088;-71
2022/03/12 07:44:48;;;;;;;14.98;7.93;;;;;;;;;;5021766;28;20077;-71
2022/03/12 07:47:14;;;;;;;24.55;8.95;;;;;;;;;;5039212;28;20602;-70
2022/03/12 07:49:42;;;;;;;19.08;8.25;;;;;;;;;;5022191;28;20129;-72
2022/03/12 07:52:10;;;;;;;22.77;9.00;;;;;;;;;;5040104;28;20053;-72
2022/03/12 07:54:36;;;;;;;15.95;7.38;;;;;;;;;;5039606;28;20447;-72
2022/03/12 07:57:02;;;;;;;16.90;7.97;;;;;;;;;;5021780;28;20049;-71
2022/03/12 07:59:29;;;;;;;16.33;7.78;;;;;;;;;;5021612;28;20103;-70
2022/03/12 08:01:55;;;;;;;14.02;7.90;;;;;;;;;;5039556;28;20053;-70
2022/03/12 08:04:21;;;;;;;14.55;7.50;;;;;;;;;;5039233;28;20587;-71
2022/03/12 08:06:50;;;;;;;17.83;7.35;;;;;;;;;;5039319;28;20048;-72
2022/03/12 08:09:16;;;;;;;13.48;7.43;;;;;;;;;;5038004;28;20124;-72
2022/03/12 08:11:43;;;;;;;15.90;7.60;;;;;;;;;;5039279;28;20176;-72
2022/03/12 08:14:12;;;;;;;14.20;8.07;;;;;;;;;;5021507;28;20050;-72
2022/03/12 08:16:38;;;;;;;;;;;;;;;;;;5039845;28;20083;-72
2022/03/12 08:19:05;;;;;;;21.05;8.27;;;;;;;;;;5017008;28;19928;-70
2022/03/12 08:21:31;;;;;;;19.98;8.25;;;;;;;;;;5036246;28;20069;-72
2022/03/12 08:23:58;;;;;;;25.00;9.57;;;;;;;;;;5035928;28;20412;-71
2022/03/12 08:26:24;;;;;;;19.83;8.88;;;;;;;;;;5035895;28;20045;-72
2022/03/12 08:28:50;;;;;;;16.95;8.10;;;;;;;;;;5018481;28;20053;-72
2022/03/12 08:31:16;;;;;;;21.95;7.85;;;;;;;;;;5036291;28;20068;-72
2022/03/12 08:33:43;;;;;;;15.88;7.95;;;;;;;;;;5036439;28;20041;-71
2022/03/12 08:36:09;;;;;;;18.15;9.57;;;;;;;;;;5018387;28;20092;-72
2022/03/12 08:38:35;;;;;;;15.18;8.07;;;;;;;;;;5018757;28;20209;-73
2022/03/12 08:41:02;;;;;;;15.68;8.18;;;;;;;;;;5018946;28;20075;-71
2022/03/12 08:43:28;;;;;;;16.00;8.63;;;;;;;;;;5035661;28;20564;-71
2022/03/12 08:45:54;;;;;;;14.38;7.95;;;;;;;;;;5018865;28;20401;-72
2022/03/12 08:48:20;;;;;;;15.23;8.38;;;;;;;;;;5038821;28;20056;-72
2022/03/12 08:50:47;;;;;;;17.85;8.70;;;;;;;;;;5036068;28;20146;-71
2022/03/12 08:53:15;;;;;;;14.95;8.25;;;;;;;;;;5035604;28;20050;-72
2022/03/12 08:55:41;;;;;;;16.45;8.35;;;;;;;;;;5036385;28;20045;-72
2022/03/12 08:58:07;;;;;;;16.80;9.27;;;;;;;;;;5036385;28;20400;-72
2022/03/12 09:00:33;;;;;;;13.50;7.68;;;;;;;;;;5035683;28;20480;-71
2022/03/12 09:02:59;;;;;;;16.48;8.52;;;;;;;;;;5035893;28;20129;-72
2022/03/12 09:05:25;;;;;;;14.18;8.57;;;;;;;;;;5037238;28;20128;-71
2022/03/12 09:07:52;;;;;;;21.00;9.45;;;;;;;;;;5038047;28;20180;-71
2022/03/12 09:10:19;;;;;;;34.67;11.13;;;;;;;;;;5018958;28;20042;-73
2022/03/12 09:12:45;;;;;;;31.27;11.18;;;;;;;;;;5017132;28;20045;-72
2022/03/12 09:15:11;;;;;;;17.13;8.98;;;;;;;;;;5034959;28;20037;-72
2022/03/12 09:17:37;;;;;;;15.75;8.68;;;;;;;;;;5017040;28;20037;-72
2022/03/12 09:20:07;;;;;;;26.15;9.43;;;;;;;;;;5034676;28;20041;-71
2022/03/12 09:22:34;;;;;;;16.02;8.55;;;;;;;;;;5036519;28;20107;-71
2022/03/12 09:25:01;;;;;;;20.60;8.80;;;;;;;;;;5019074;28;20041;-72
2022/03/12 09:27:28;;;;;;;16.90;9.35;;;;;;;;;;5016991;28;20049;-72
2022/03/12 09:29:53;;;;;;;13.23;8.75;;;;;;;;;;5034280;28;20045;-72
2022/03/12 09:32:20;;;;;;;18.20;9.50;;;;;;;;;;5034522;28;20585;-72
2022/03/12 09:34:46;;;;;;;16.65;8.68;;;;;;;;;;5016859;28;20065;-70
2022/03/12 09:37:12;;;;;;;18.70;9.43;;;;;;;;;;5034721;28;20132;-71
2022/03/12 09:39:38;;;;;;;20.55;10.23;;;;;;;;;;5035451;28;20045;-70
2022/03/12 09:42:05;;;;;;;20.60;9.32;;;;;;;;;;5037644;28;20049;-71
2022/03/12 09:44:31;;;;;;;16.63;8.48;;;;;;;;;;5034127;28;20045;-70
2022/03/12 09:46:57;;;;;;;27.35;10.65;;;;;;;;;;5034873;28;20046;-71
2022/03/12 09:49:23;;;;;;;15.68;8.50;;;;;;;;;;5035545;28;20440;-71
2022/03/12 09:51:49;;;;;;;39.92;13.07;;;;;;;;;;5034868;28;20049;-71
2022/03/12 09:54:18;;;;;;;16.83;9.40;;;;;;;;;;5035115;28;20119;-71
2022/03/12 09:56:44;;;;;;;15.98;9.00;;;;;;;;;;5035669;28;20077;-71
2022/03/12 09:59:10;;;;;;;22.00;9.77;;;;;;;;;;5017468;28;20136;-71
2022/03/12 10:01:36;;;;;;;27.20;11.48;;;;;;;;;;5035679;28;20129;-71
2022/03/12 10:04:02;;;;;;;26.85;10.27;;;;;;;;;;5017982;28;20053;-72
2022/03/12 10:06:31;;;;;;;25.58;11.35;;;;;;;;;;5034762;28;20045;-72
2022/03/12 10:08:57;;;;;;;22.23;10.35;;;;;;;;;;5034717;28;20408;-72
2022/03/12 10:11:23;;;;;;;18.35;9.95;;;;;;;;;;5034708;28;20053;-72
2022/03/12 10:13:49;;;;;;;20.85;10.52;;;;;;;;;;5000945;28;20053;-72
2022/03/12 10:16:18;;;;;;;19.70;9.70;;;;;;;;;;5034166;28;20546;-72
2022/03/12 10:18:45;;;;;;;17.13;9.20;;;;;;;;;;5034332;28;20049;-72
2022/03/12 10:21:11;;;;;;;15.57;9.40;;;;;;;;;;5034507;28;20045;-72
2022/03/12 10:23:37;;;;;;;15.35;9.68;;;;;;;;;;5016383;28;20555;-70
2022/03/12 10:26:03;;;;;;;15.25;9.07;;;;;;;;;;5034211;28;20120;-70
2022/03/12 10:28:29;;;;;;;12.88;9.20;;;;;;;;;;5034219;28;20081;-70
2022/03/12 10:30:56;;;;;;;16.75;9.10;;;;;;;;;;5034954;28;20042;-70
2022/03/12 10:33:24;;;;;;;15.85;9.60;;;;;;;;;;5017270;28;20413;-70
2022/03/12 10:35:50;;;;;;;15.27;9.93;;;;;;;;;;5034182;28;20560;-72
2022/03/12 10:38:17;;;;;;;14.88;8.82;;;;;;;;;;5034439;28;20414;-72
2022/03/12 10:40:44;;;;;;;14.77;8.90;;;;;;;;;;5033341;28;20046;-71
2022/03/12 10:43:14;;;;;;;17.98;8.90;;;;;;;;;;5034033;28;20136;-71
2022/03/12 10:45:47;;;;;;;15.10;8.93;;;;;;;;;;5035204;28;20049;-71
2022/03/12 10:48:14;;;;;;;13.60;8.63;;;;;;;;;;5035643;28;20037;-72
2022/03/12 10:50:44;;;;;;;13.68;8.80;;;;;;;;;;5036048;28;20045;-71
2022/03/12 10:53:12;;;;;;;15.65;8.75;;;;;;;;;;5036381;28;20053;-72
2022/03/12 10:55:40;;;;;;;13.02;8.48;;;;;;;;;;5037866;28;20404;-71
2022/03/12 10:58:07;;;;;;;15.00;9.55;;;;;;;;;;5036834;28;20049;-71
2022/03/12 11:00:38;;;;;;;15.18;8.45;;;;;;;;;;5022275;28;20049;-72
2022/03/12 11:03:07;;;;;;;14.93;8.45;;;;;;;;;;5038987;28;20049;-71
2022/03/12 11:05:35;;;;;;;12.77;8.40;;;;;;;;;;5039082;28;20103;-71
2022/03/12 11:08:20;;;;;;;11.68;8.15;;;;;;;;;;5035763;28;20052;-71
2022/03/12 11:10:49;;;;;;;12.23;7.75;;;;;;;;;;5036354;28;20416;-72
2022/03/12 11:13:24;;;;;;;11.95;8.75;;;;;;;;;;5033610;28;20050;-71
2022/03/12 11:16:04;;;;;;;14.70;9.48;;;;;;;;;;5015912;28;20133;-71
2022/03/12 11:18:30;;;;;;;12.98;8.63;;;;;;;;;;5033911;28;20062;-71
2022/03/12 11:20:57;;;;;;;14.98;8.77;;;;;;;;;;5033006;28;20041;-71
2022/03/12 11:23:27;;;;;;;11.73;8.43;;;;;;;;;;5033503;28;20106;-71
2022/03/12 11:25:58;;;;;;;15.98;9.27;;;;;;;;;;5033512;28;20045;-71
2022/03/12 11:28:25;;;;;;;16.02;9.00;;;;;;;;;;5033373;28;20121;-71
2022/03/12 11:30:51;;;;;;;12.32;8.00;;;;;;;;;;5032999;28;20053;-71
2022/03/12 11:33:18;;;;;;;14.18;8.63;;;;;;;;;;5032985;28;20053;-71
2022/03/12 11:35:45;;;;;;;12.40;8.98;;;;;;;;;;5032973;28;20496;-69
2022/03/12 11:38:11;;;;;;;17.27;9.05;;;;;;;;;;5033447;28;20061;-70
2022/03/12 11:40:42;;;;;;;13.32;8.73;;;;;;;;;;5032976;28;20409;-71
2022/03/12 11:43:26;;;;;;;14.95;8.82;;;;;;;;;;5032979;28;20045;-70
2022/03/12 11:45:53;;;;;;;35.00;12.45;;;;;;;;;;5015371;28;20068;-71
2022/03/12 11:48:20;;;;;;;14.50;8.82;;;;;;;;;;5033389;28;20049;-71
2022/03/12 11:50:46;;;;;;;12.93;8.35;;;;;;;;;;5033179;28;20049;-71
2022/03/12 11:53:16;;;;;;;10.73;7.78;;;;;;;;;;5035425;28;20049;-71
2022/03/12 11:55:42;;;;;;;14.25;8.38;;;;;;;;;;5018911;28;20050;-70
2022/03/12 11:58:08;;;;;;;11.85;7.93;;;;;;;;;;5036621;28;20049;-71
2022/03/12 12:00:34;;;;;;;15.52;8.20;;;;;;;;;;5036562;28;20480;-71
2022/03/12 12:03:00;;;;;;;14.63;8.20;;;;;;;;;;5018901;28;20045;-71
2022/03/12 12:05:30;;;;;;;11.05;8.23;;;;;;;;;;5036740;28;20048;-71
2022/03/12 12:07:56;;;;;;;12.75;8.57;;;;;;;;;;5018602;28;20531;-71
2022/03/12 12:10:27;;;;;;;15.30;8.57;;;;;;;;;;5018619;28;20519;-71
2022/03/12 12:12:53;;;;;;;12.70;8.35;;;;;;;;;;5036463;28;20064;-72
2022/03/12 12:15:22;;;;;;;11.10;8.77;;;;;;;;;;5037120;28;20095;-70
2022/03/12 12:17:48;;;;;;;23.38;10.20;;;;;;;;;;5038139;28;20045;-71
2022/03/12 12:20:15;;;;;;;15.45;8.00;;;;;;;;;;5037137;28;20049;-71
2022/03/12 12:22:42;;;;;;;22.27;10.07;;;;;;;;;;5036895;28;20045;-71
2022/03/12 12:25:09;;;;;;;28.75;10.48;;;;;;;;;;5037063;28;20042;-71
2022/03/12 12:27:47;;;;;;;11.30;7.95;;;;;;;;;;5036071;28;20178;-72
2022/03/12 12:30:15;;;;;;;15.20;9.35;;;;;;;;;;5036475;28;20052;-72
2022/03/12 12:32:45;;;;;;;11.90;8.83;;;;;;;;;;5018710;28;20052;-72
2022/03/12 12:35:15;;;;;;;13.73;7.85;;;;;;;;;;5036063;28;20045;-71
2022/03/12 12:37:50;;;;;;;12.75;7.60;;;;;;;;;;5036029;28;20432;-71
2022/03/12 12:40:27;;;;;;;18.33;7.80;;;;;;;;;;5018175;28;20072;-71
2022/03/12 12:42:55;;;;;;;15.35;7.80;;;;;;;;;;5035453;28;20535;-71
2022/03/12 12:45:23;;;;;;;11.50;7.30;;;;;;;;;;5035868;28;20041;-71
2022/03/12 12:48:20;;;;;;;13.23;7.18;;;;;;;;;;5035611;28;20045;-71
2022/03/12 12:51:06;;;;;;;15.45;7.70;;;;;;;;;;5016104;28;20053;-71
2022/03/12 12:53:36;;;;;;;12.90;7.47;;;;;;;;;;5017843;28;20052;-71
2022/03/12 12:56:17;;;;;;;15.10;7.88;;;;;;;;;;5036819;28;20045;-71
2022/03/12 12:59:06;;;;;;;11.65;7.07;;;;;;;;;;5036566;28;20183;-71
2022/03/12 13:01:37;;;;;;;13.82;7.15;;;;;;;;;;5022770;28;20488;-71
2022/03/12 13:04:04;;;;;;;11.73;6.75;;;;;;;;;;5036026;28;20123;-71
2022/03/12 13:06:36;;;;;;;12.80;7.00;;;;;;;;;;5020264;28;20508;-71
2022/03/12 13:09:22;;;;;;;13.15;7.03;;;;;;;;;;5035709;28;20496;-72
2022/03/12 13:11:58;;;;;;;10.23;6.32;;;;;;;;;;5017846;28;20404;-71
2022/03/12 13:14:45;;;;;;;11.77;5.97;;;;;;;;;;5035821;28;20091;-71
2022/03/12 13:17:25;;;;;;;9.07;6.00;;;;;;;;;;5035785;28;20493;-70
2022/03/12 13:19:51;;;;;;;14.40;6.18;;;;;;;;;;5018657;28;20097;-71
2022/03/12 13:22:18;;;;;;;9.82;5.82;;;;;;;;;;5018306;28;20092;-72
2022/03/12 13:24:46;;;;;;;22.67;9.48;;;;;;;;;;5001118;28;20500;-71
2022/03/12 13:27:16;;;;;;;12.17;7.23;;;;;;;;;;5035297;28;20084;-71
2022/03/12 13:29:42;;;;;;;44.65;13.43;;;;;;;;;;5036625;28;20283;-71
2022/03/12 13:32:17;;;;;;;12.88;7.40;;;;;;;;;;5036436;28;20128;-71
2022/03/12 13:34:43;;;;;;;18.10;8.07;;;;;;;;;;5036047;28;20085;-71
2022/03/12 13:37:12;;;;;;;21.73;8.48;;;;;;;;;;5035572;28;20057;-71
2022/03/12 13:39:38;;;;;;;17.40;7.97;;;;;;;;;;5035432;28;20053;-72
2022/03/12 13:42:04;;;;;;;27.38;9.45;;;;;;;;;;5035334;28;20448;-71
2022/03/12 13:44:30;;;;;;;12.10;7.00;;;;;;;;;;5035395;28;20128;-71
2022/03/12 13:46:56;;;;;;;10.50;5.80;;;;;;;;;;5034980;28;20041;-71
2022/03/12 13:49:22;;;;;;;10.32;6.45;;;;;;;;;;5034906;28;20051;-71
2022/03/12 13:51:51;;;;;;;22.10;8.00;;;;;;;;;;5034324;28;20041;-71
2022/03/12 13:54:18;;;;;;;35.47;9.93;;;;;;;;;;5034832;28;20056;-72
2022/03/12 13:56:45;;;;;;;21.10;8.55;;;;;;;;;;5034689;28;20045;-71
2022/03/12 13:59:13;;;;;;;11.13;7.05;;;;;;;;;;5000785;28;20111;-71
2022/03/12 14:01:44;;;;;;;16.35;7.22;;;;;;;;;;5034784;28;20052;-72
2022/03/12 14:04:24;;;;;;;11.73;5.97;;;;;;;;;;5035292;28;20045;-72
2022/03/12 14:06:50;;;;;;;6.97;5.05;;;;;;;;;;5035132;28;20057;-72
2022/03/12 14:09:18;;;;;;;15.05;6.63;;;;;;;;;;5034676;28;20041;-72
2022/03/12 14:11:59;;;;;;;7.78;5.07;;;;;;;;;;5016583;28;20045;-72
2022/03/12 14:14:26;;;;;;;10.20;5.78;;;;;;;;;;5016515;28;20164;-72
2022/03/12 14:16:56;;;;;;;35.22;10.90;;;;;;;;;;5033477;28;20049;-72
2022/03/12 14:19:24;;;;;;;9.57;5.57;;;;;;;;;;4999920;28;20045;-72
2022/03/12 14:21:56;;;;;;;22.83;8.30;;;;;;;;;;5016687;28;20049;-72
2022/03/12 14:24:23;;;;;;;20.95;8.20;;;;;;;;;;5034571;28;20316;-72
2022/03/12 14:27:11;;;;;;;14.95;7.55;;;;;;;;;;5034544;28;20042;-72
2022/03/12 14:29:41;;;;;;;9.02;5.20;;;;;;;;;;5035136;28;20103;-72
2022/03/12 14:32:12;;;;;;;11.55;6.28;;;;;;;;;;5035234;28;20041;-69
2022/03/12 14:34:40;;;;;;;11.93;5.57;;;;;;;;;;5017630;28;20056;-71